Ceres, Brazil
Current Conditions -  °F | °C
As of 8:00 PM on Saturday 20 Dec 2014 (Local Time) from SBAN Reporting Station
Light Rain Light Rain  
Wind Chill: 70°   Ceiling: 700
Heat Index: 70°   Visibility: 6mi
Dew Point: 64°   Wind: 5mph
Humidity: 83%   Direction: 10°N
Pressure: 30"   Gusts: NA
Location:  15.31°S, 49.6°W
Report Text: SBAN 202200Z 01004KT 9999 3000N -RA BKN007 SCT014 BKN080 21/18 Q1016
Loading
Personal Weather Stations






























Interactive Weather Map New forecast layout! Learn more

10-Day Weather Forecast

Advertisements
Track Severe Weather on mobile